Time;durP1;ratioP1;P1;durP2;ratioP2;P2;SDS_P1;SDS_P2;PMS_P1;PMS_P2;Temp;Humidity;BMP_temperature;BMP_pressure;BME280_temperature;BME280_humidity;BME280_pressure;Samples;Min_cycle;Max_cycle;Signal;HPM_P1;HPM_P2
2022/11/06 00:00:45;;;;;;;0.00;0.00;;;;;;;13.66;100.00;99611.78;4931981;29;20028;-77
2022/11/06 00:03:10;;;;;;;0.00;0.00;;;;;;;13.71;100.00;99618.00;4924106;29;20032;-78
2022/11/06 00:08:33;;;;;;;0.00;0.00;;;;;;;13.70;100.00;99619.09;4948985;29;20063;-77
2022/11/06 00:11:09;;;;;;;;;;;;;;;13.71;100.00;99607.00;4944950;29;20169;-77
2022/11/06 00:13:36;;;;;;;0.00;0.00;;;;;;;13.73;100.00;99604.75;4945538;29;19971;-77
2022/11/06 00:16:04;;;;;;;0.00;0.00;;;;;;;13.74;100.00;99603.63;4944489;29;20029;-78
2022/11/06 00:18:32;;;;;;;0.00;0.00;;;;;;;13.70;100.00;99599.06;4944493;29;20035;-77
2022/11/06 00:20:58;;;;;;;0.00;0.00;;;;;;;13.72;100.00;99594.88;4940982;29;20046;-77
2022/11/06 00:23:42;;;;;;;;;;;;;;;;;;;;;
2022/11/06 00:26:22;;;;;;;0.00;0.00;;;;;;;13.69;100.00;99594.69;4957982;28;20144;-77
2022/11/06 00:29:01;;;;;;;0.00;0.00;;;;;;;13.65;100.00;99583.47;4942859;28;20098;-77
2022/11/06 00:31:35;;;;;;;0.00;0.00;;;;;;;13.58;100.00;99577.59;4968287;28;20452;-78
2022/11/06 00:34:08;;;;;;;0.00;0.00;;;;;;;13.53;100.00;99585.94;4930342;29;20130;-77
2022/11/06 00:36:34;;;;;;;0.00;0.00;;;;;;;13.49;100.00;99584.94;4948875;29;20082;-77
2022/11/06 00:39:06;;;;;;;0.00;0.00;;;;;;;13.42;100.00;99577.13;4948220;29;20055;-77
2022/11/06 00:41:31;;;;;;;0.00;0.00;;;;;;;13.40;100.00;99577.44;4949952;29;20076;-75
2022/11/06 00:43:59;;;;;;;0.00;0.00;;;;;;;13.40;100.00;99566.44;4923856;29;20039;-75
2022/11/06 00:46:25;;;;;;;0.00;0.00;;;;;;;13.42;100.00;99569.69;4931702;29;20027;-76
2022/11/06 00:48:55;;;;;;;0.00;0.00;;;;;;;13.41;100.00;99557.06;4943430;29;20032;-76
2022/11/06 00:51:27;;;;;;;0.00;0.00;;;;;;;13.41;100.00;99557.06;4944092;29;20012;-77
2022/11/06 00:53:58;;;;;;;0.00;0.00;;;;;;;13.42;100.00;99566.94;4925970;29;20040;-78
2022/11/06 00:56:32;;;;;;;0.00;0.00;;;;;;;13.47;100.00;99565.22;4942139;29;20024;-77
2022/11/06 00:58:59;;;;;;;0.00;0.00;;;;;;;13.47;100.00;99556.97;4938633;29;20028;-77
2022/11/06 01:01:47;;;;;;;0.00;0.00;;;;;;;13.49;100.00;99558.28;4902316;29;20124;-77
2022/11/06 01:04:18;;;;;;;0.00;0.00;;;;;;;13.48;100.00;99555.84;4947173;28;20038;-76
2022/11/06 01:06:48;;;;;;;0.00;0.00;;;;;;;13.45;100.00;99540.81;4951027;29;20032;-77
2022/11/06 01:09:20;;;;;;;0.00;0.00;;;;;;;13.44;100.00;99533.66;4942116;29;20450;-78
2022/11/06 01:11:50;;;;;;;0.00;0.00;;;;;;;13.40;100.00;99533.50;4934074;29;20035;-77
2022/11/06 01:14:19;;;;;;;0.00;0.00;;;;;;;13.36;100.00;99532.47;4949189;29;20036;-77
2022/11/06 01:17:07;;;;;;;0.00;0.00;;;;;;;13.27;100.00;99528.75;4931218;29;20056;-77
2022/11/06 01:19:35;;;;;;;0.00;0.00;;;;;;;13.32;100.00;99536.09;4945108;28;20021;-78
2022/11/06 01:22:01;;;;;;;0.00;0.00;;;;;;;13.30;100.00;99536.38;4943176;29;20034;-78
2022/11/06 01:24:30;;;;;;;0.00;0.00;;;;;;;13.27;100.00;99528.75;4914620;29;20539;-76
2022/11/06 01:26:58;;;;;;;0.00;0.00;;;;;;;13.25;100.00;99520.03;4907561;29;20138;-77
2022/11/06 01:29:24;;;;;;;0.03;0.03;;;;;;;13.23;100.00;99522.28;4942083;29;20028;-77
2022/11/06 01:31:49;;;;;;;0.00;0.00;;;;;;;13.23;100.00;99527.78;4913373;29;20098;-77
2022/11/06 01:34:28;;;;;;;;;;;;;;;;;;;;;
2022/11/06 01:36:53;;;;;;;0.00;0.00;;;;;;;13.16;100.00;99494.44;4923349;29;20091;-77
2022/11/06 01:39:19;;;;;;;0.00;0.00;;;;;;;13.14;100.00;99497.47;4944618;28;20036;-77
2022/11/06 01:42:08;;;;;;;0.00;0.00;;;;;;;13.14;100.00;99496.66;4954352;28;20055;-77
2022/11/06 01:44:40;;;;;;;0.00;0.00;;;;;;;13.19;100.00;99504.78;4928087;29;20039;-77
2022/11/06 01:47:29;;;;;;;0.00;0.00;;;;;;;13.16;100.00;99494.44;4928482;29;20111;-77
2022/11/06 01:50:01;;;;;;;0.00;0.00;;;;;;;13.16;100.00;99494.44;4926207;29;20092;-76
2022/11/06 01:52:32;;;;;;;0.00;0.00;;;;;;;13.17;100.00;99490.53;4945236;29;20035;-77
2022/11/06 01:55:21;;;;;;;0.00;0.00;;;;;;;13.19;100.00;99488.31;4947450;29;20024;-76
2022/11/06 01:57:51;;;;;;;0.00;0.00;;;;;;;13.15;100.00;99498.28;4944687;29;20036;-76
2022/11/06 02:00:19;;;;;;;0.00;0.00;;;;;;;13.13;100.00;99495.00;4916822;29;20071;-77
2022/11/06 02:02:45;;;;;;;0.00;0.00;;;;;;;13.12;100.00;99493.41;4915588;29;20024;-77
2022/11/06 02:05:11;;;;;;;0.00;0.00;;;;;;;13.03;100.00;99479.59;4943645;29;20025;-77
2022/11/06 02:07:44;;;;;;;0.00;0.00;;;;;;;13.10;100.00;99486.28;4943284;28;20033;-78
2022/11/06 02:10:10;;;;;;;0.00;0.00;;;;;;;13.05;100.00;99478.16;4911558;29;20104;-77
2022/11/06 02:12:48;;;;;;;0.00;0.00;;;;;;;13.14;100.00;99488.41;4928649;28;20037;-78
2022/11/06 02:15:33;;;;;;;0.00;0.00;;;;;;;13.16;100.00;99488.94;4942036;29;20087;-78
2022/11/06 02:18:26;;;;;;;0.00;0.00;;;;;;;13.19;100.00;99482.84;4932871;29;20036;-78
2022/11/06 02:21:09;;;;;;;0.00;0.00;;;;;;;13.20;100.00;99482.53;4947214;28;20040;-77
2022/11/06 02:23:57;;;;;;;0.00;0.00;;;;;;;13.21;100.00;99475.09;4946562;29;20099;-77
2022/11/06 02:26:59;;;;;;;0.00;0.00;;;;;;;13.22;100.00;99476.72;4941647;29;20174;-78
2022/11/06 02:29:33;;;;;;;0.00;0.00;;;;;;;13.21;100.00;99475.09;4942066;29;20405;-76
2022/11/06 02:32:05;;;;;;;0.00;0.00;;;;;;;13.22;100.00;99477.53;4932163;29;20064;-76
2022/11/06 02:34:34;;;;;;;0.00;0.00;;;;;;;13.25;100.00;99460.44;4930051;29;20137;-77
2022/11/06 02:37:05;;;;;;;0.00;0.00;;;;;;;13.21;100.00;99461.38;4946678;29;20013;-77
2022/11/06 02:39:35;;;;;;;0.00;0.00;;;;;;;13.19;100.00;99455.38;4943061;29;20107;-76
2022/11/06 02:42:04;;;;;;;0.00;0.00;;;;;;;13.22;100.00;99463.00;4943305;29;20016;-76
2022/11/06 02:44:43;;;;;;;0.00;0.00;;;;;;;13.22;100.00;99463.00;4927582;29;20020;-76
2022/11/06 02:47:13;;;;;;;0.00;0.00;;;;;;;13.23;100.00;99450.91;4942868;28;20032;-76
2022/11/06 02:49:56;;;;;;;0.00;0.00;;;;;;;13.23;100.00;99446.22;4926319;29;20067;-77
2022/11/06 02:52:30;;;;;;;0.00;0.00;;;;;;;13.22;100.00;99450.06;4938119;29;20054;-75
2022/11/06 02:55:07;;;;;;;0.00;0.00;;;;;;;13.22;100.00;99450.06;4940579;28;20032;-77
2022/11/06 02:57:37;;;;;;;0.00;0.00;;;;;;;13.19;100.00;99447.16;4923372;29;20012;-76
2022/11/06 03:00:14;;;;;;;0.00;0.00;;;;;;;13.19;100.00;99442.47;4943604;29;20115;-77
2022/11/06 03:03:02;;;;;;;0.00;0.00;;;;;;;13.22;100.00;99454.75;4937773;29;20055;-76
2022/11/06 03:05:35;;;;;;;0.00;0.00;;;;;;;13.17;100.00;99430.16;4930838;29;20111;-77
2022/11/06 03:08:16;;;;;;;0.00;0.00;;;;;;;13.15;100.00;99422.22;4932091;29;20032;-76
2022/11/06 03:11:17;;;;;;;0.00;0.00;;;;;;;13.14;100.00;99411.56;4928905;29;20029;-76
2022/11/06 03:14:23;;;;;;;0.00;0.00;;;;;;;13.12;100.00;99411.06;4924217;29;20134;-76
2022/11/06 03:17:04;;;;;;;0.00;0.00;;;;;;;13.13;100.00;99402.53;4940598;29;20043;-77
2022/11/06 03:19:48;;;;;;;0.00;0.00;;;;;;;13.10;100.00;99403.94;4938052;29;20065;-76
2022/11/06 03:22:26;;;;;;;0.00;0.00;;;;;;;13.08;100.00;99397.97;4925846;29;20118;-80
2022/11/06 03:25:06;;;;;;;0.00;0.00;;;;;;;13.05;100.00;99384.84;4935179;29;20117;-78
2022/11/06 03:27:40;;;;;;;0.00;0.00;;;;;;;13.04;100.00;99383.22;4945187;29;20036;-78
2022/11/06 03:30:12;;;;;;;0.00;0.00;;;;;;;13.04;100.00;99377.72;4947520;29;20028;-79
2022/11/06 03:32:51;;;;;;;0.00;0.00;;;;;;;13.04;100.00;99380.47;4943592;28;20035;-78
2022/11/06 03:35:38;;;;;;;0.00;0.00;;;;;;;13.05;100.00;99379.38;4948783;29;20032;-78
2022/11/06 03:38:09;;;;;;;0.00;0.00;;;;;;;13.05;100.00;99395.84;4948372;29;20024;-78
2022/11/06 03:40:39;;;;;;;0.00;0.00;;;;;;;13.05;100.00;99384.84;4934311;28;20244;-78
2022/11/06 03:43:08;;;;;;;0.00;0.00;;;;;;;13.03;100.00;99376.09;4941914;28;20027;-77
2022/11/06 03:45:41;;;;;;;0.00;0.00;;;;;;;13.00;100.00;99364.94;4956959;29;20024;-77
2022/11/06 03:48:18;;;;;;;0.00;0.00;;;;;;;13.02;100.00;99368.97;4951182;29;20023;-77
2022/11/06 03:50:50;;;;;;;0.00;0.00;;;;;;;13.05;100.00;99375.78;4941312;29;20008;-79
2022/11/06 03:53:29;;;;;;;0.05;0.05;;;;;;;13.08;100.00;99362.28;4932356;28;20016;-79
2022/11/06 03:56:01;;;;;;;0.00;0.00;;;;;;;13.09;100.00;99363.88;4931255;28;20023;-79
2022/11/06 03:58:37;;;;;;;0.00;0.00;;;;;;;13.08;100.00;99356.78;4934120;29;20481;-78
2022/11/06 04:01:09;;;;;;;0.00;0.00;;;;;;;12.99;100.00;99353.13;4918431;29;20026;-79
2022/11/06 04:03:45;;;;;;;0.00;0.00;;;;;;;12.94;100.00;99345.03;4945099;28;20111;-80
2022/11/06 04:06:24;;;;;;;0.00;0.00;;;;;;;13.05;100.00;99343.69;4945646;28;20012;-77
2022/11/06 04:14:29;;;;;;;0.00;0.00;;;;;;;13.04;100.00;99322.00;4942484;28;20039;-78
2022/11/06 04:17:01;;;;;;;0.00;0.00;;;;;;;13.06;100.00;99317.84;4938195;28;20035;-78
2022/11/06 04:19:27;;;;;;;0.00;0.00;;;;;;;13.00;100.00;99316.34;4940329;28;20042;-79
2022/11/06 04:22:06;;;;;;;0.00;0.00;;;;;;;13.05;100.00;99323.66;4931539;29;20103;-79
2022/11/06 04:27:56;;;;;;;0.00;0.00;;;;;;;13.12;100.00;99301.28;4947888;28;20071;-78
2022/11/06 04:30:21;;;;;;;0.00;0.00;;;;;;;13.09;100.00;99309.00;4945435;28;20044;-77
2022/11/06 04:32:57;;;;;;;0.00;0.00;;;;;;;13.04;100.00;99306.38;4944773;29;19999;-77
2022/11/06 04:35:22;;;;;;;0.00;0.00;;;;;;;13.05;100.00;99307.19;4946373;29;20035;-78
2022/11/06 04:38:31;;;;;;;0.00;0.00;;;;;;;13.04;100.00;99303.63;4939484;29;20498;-79
2022/11/06 04:41:19;;;;;;;0.00;0.00;;;;;;;13.04;100.00;99303.63;4953396;29;20040;-77
2022/11/06 04:43:48;;;;;;;0.00;0.00;;;;;;;13.04;100.00;99317.34;4948762;29;20038;-77
2022/11/06 04:46:24;;;;;;;0.00;0.00;;;;;;;13.02;100.00;99314.09;4946369;28;20047;-77
2022/11/06 04:48:50;;;;;;;0.00;0.00;;;;;;;13.09;100.00;99328.19;4930939;29;20008;-77
2022/11/06 04:51:20;;;;;;;0.00;0.00;;;;;;;13.12;100.00;99337.75;4949073;28;20510;-78
2022/11/06 04:53:51;;;;;;;0.00;0.00;;;;;;;13.14;100.00;99318.22;4941713;28;20027;-78
2022/11/06 04:56:24;;;;;;;0.00;0.00;;;;;;;13.10;100.00;99304.34;4945022;29;20063;-78
2022/11/06 04:58:49;;;;;;;0.00;0.00;;;;;;;13.01;100.00;99287.78;4931563;28;20018;-77
2022/11/06 05:01:18;;;;;;;0.00;0.00;;;;;;;13.00;100.00;99288.91;4918830;29;20091;-78
2022/11/06 05:03:46;;;;;;;0.00;0.00;;;;;;;12.97;100.00;99278.56;4926763;29;20020;-79
2022/11/06 05:06:13;;;;;;;0.00;0.00;;;;;;;12.93;100.00;99269.31;4932911;28;20040;-80
2022/11/06 05:08:39;;;;;;;0.00;0.00;;;;;;;12.92;100.00;99265.78;4947567;29;20028;-79
2022/11/06 05:11:05;;;;;;;0.00;0.00;;;;;;;12.95;100.00;99278.03;4923468;29;20095;-79
2022/11/06 05:13:34;;;;;;;0.00;0.00;;;;;;;12.97;100.00;99273.06;4938923;28;20036;-79
2022/11/06 05:16:03;;;;;;;0.00;0.00;;;;;;;12.97;100.00;99264.84;4939114;28;20020;-78
2022/11/06 05:18:29;;;;;;;0.00;0.00;;;;;;;12.98;100.00;99260.97;4934092;29;20039;-79
2022/11/06 05:23:42;;;;;;;0.00;0.00;;;;;;;12.95;100.00;99264.31;4936950;28;20062;-78
2022/11/06 05:26:09;;;;;;;0.00;0.00;;;;;;;12.89;100.00;99257.31;4935168;29;20052;-81
2022/11/06 05:28:34;;;;;;;0.00;0.00;;;;;;;12.84;100.00;99249.22;4945582;28;20032;-79
2022/11/06 05:31:00;;;;;;;0.00;0.00;;;;;;;12.87;100.00;99256.84;4936685;29;20087;-79
2022/11/06 05:33:25;;;;;;;0.00;0.00;;;;;;;12.87;100.00;99251.34;4937192;29;20053;-78
2022/11/06 05:35:51;;;;;;;0.00;0.00;;;;;;;12.83;100.00;99244.84;4940200;29;20031;-79
2022/11/06 05:38:18;;;;;;;0.00;0.00;;;;;;;12.82;100.00;99244.06;4953474;28;20402;-79
2022/11/06 05:40:45;;;;;;;0.00;0.00;;;;;;;12.81;100.00;99249.84;4935888;29;20036;-77
2022/11/06 05:43:10;;;;;;;0.00;0.00;;;;;;;12.83;100.00;99245.66;4935514;28;20075;-79
2022/11/06 05:45:36;;;;;;;0.00;0.00;;;;;;;12.84;100.00;99246.50;4950659;29;20043;-78
2022/11/06 05:48:01;;;;;;;0.00;0.00;;;;;;;12.84;100.00;99251.97;4935590;28;20024;-78
2022/11/06 05:50:29;;;;;;;0.00;0.00;;;;;;;12.86;100.00;99241.50;4930925;29;20036;-80
2022/11/06 05:53:02;;;;;;;0.00;0.00;;;;;;;12.90;100.00;99235.06;4935216;29;20027;-79
2022/11/06 05:55:28;;;;;;;0.38;0.38;;;;;;;12.90;100.00;99228.78;4952980;29;20385;-79
2022/11/06 05:58:02;;;;;;;0.00;0.00;;;;;;;12.91;100.00;99219.44;4918919;29;20050;-79
2022/11/06 06:00:28;;;;;;;1.45;1.35;;;;;;;12.88;100.00;99226.34;4939156;29;20032;-78
2022/11/06 06:02:56;;;;;;;0.00;0.00;;;;;;;12.85;100.00;99220.66;4951589;28;20028;-78
2022/11/06 06:05:35;;;;;;;0.00;0.00;;;;;;;12.86;100.00;99216.81;4937514;29;20040;-79
2022/11/06 06:08:04;;;;;;;0.00;0.00;;;;;;;12.85;100.00;99194.06;4936374;29;20059;-79
2022/11/06 06:10:55;;;;;;;0.00;0.00;;;;;;;12.77;100.00;99186.56;4944886;28;20022;-80
2022/11/06 06:13:24;;;;;;;;;;;;;;;12.77;100.00;99193.97;4950318;28;20115;-79
2022/11/06 06:15:55;;;;;;;0.00;0.00;;;;;;;12.69;100.00;99179.88;4931447;29;19926;-75
2022/11/06 06:18:30;;;;;;;;;;;;;;;;;;;;;
2022/11/06 06:21:02;;;;;;;0.00;0.00;;;;;;;12.68;100.00;99171.97;4938993;29;20083;-75
2022/11/06 06:23:33;;;;;;;0.00;0.00;;;;;;;12.64;100.00;99160.78;4935878;29;20607;-75
2022/11/06 06:26:07;;;;;;;0.00;0.00;;;;;;;12.72;100.00;99179.25;4947579;29;20180;-73
2022/11/06 06:28:35;;;;;;;0.00;0.00;;;;;;;12.75;100.00;99170.41;4939878;29;20066;-75
2022/11/06 06:31:08;;;;;;;0.00;0.00;;;;;;;12.72;100.00;99179.25;4929071;29;20024;-74
2022/11/06 06:33:44;;;;;;;0.00;0.00;;;;;;;12.68;100.00;99180.19;4943447;29;20103;-74
2022/11/06 06:36:10;;;;;;;0.00;0.00;;;;;;;12.64;100.00;99177.25;4946547;29;20043;-73
2022/11/06 06:38:35;;;;;;;0.00;0.00;;;;;;;12.62;100.00;99173.22;4923629;29;20031;-73
2022/11/06 06:41:06;;;;;;;0.00;0.00;;;;;;;12.62;100.00;99176.75;4920121;29;20012;-73
2022/11/06 06:43:31;;;;;;;0.00;0.00;;;;;;;12.50;100.00;99176.47;4939659;29;20031;-74
2022/11/06 06:46:07;;;;;;;0.00;0.00;;;;;;;12.46;100.00;99175.50;4927210;29;20183;-74
2022/11/06 06:48:36;;;;;;;0.00;0.00;;;;;;;12.44;100.00;99166.75;4950332;29;20167;-73
2022/11/06 06:51:02;;;;;;;0.00;0.00;;;;;;;12.43;100.00;99165.16;4932395;29;20123;-74
2022/11/06 06:53:28;;;;;;;0.00;0.00;;;;;;;12.42;100.00;99163.53;4928252;29;20538;-73
2022/11/06 06:55:56;;;;;;;0.00;0.00;;;;;;;12.42;100.00;99163.53;4946108;29;20041;-77
2022/11/06 06:58:24;;;;;;;0.00;0.00;;;;;;;12.39;100.00;99162.22;4931002;29;20035;-75
2022/11/06 07:00:50;;;;;;;0.00;0.00;;;;;;;12.39;100.00;99149.31;4935282;29;20036;-74
2022/11/06 07:03:22;;;;;;;0.00;0.00;;;;;;;12.42;100.00;99144.34;4937547;29;20175;-73
2022/11/06 07:05:51;;;;;;;0.00;0.00;;;;;;;12.40;100.00;99150.13;4928986;29;20183;-75
2022/11/06 07:08:16;;;;;;;0.00;0.00;;;;;;;12.41;100.00;99140.75;4927552;29;20052;-76
2022/11/06 07:10:49;;;;;;;0.00;0.00;;;;;;;12.45;100.00;99140.97;4924585;29;20029;-75
2022/11/06 07:13:15;;;;;;;0.00;0.00;;;;;;;12.44;100.00;99142.09;4941802;29;20498;-74
2022/11/06 07:15:40;;;;;;;0.00;0.00;;;;;;;12.43;100.00;99143.22;4923873;29;20055;-75
2022/11/06 07:18:09;;;;;;;0.00;0.00;;;;;;;12.47;100.00;99146.94;4946428;28;20074;-74
2022/11/06 07:20:34;;;;;;;0.00;0.00;;;;;;;12.49;100.00;99141.97;4951824;29;20023;-74
2022/11/06 07:23:09;;;;;;;0.00;0.00;;;;;;;12.53;100.00;99137.50;4955416;29;20035;-74
2022/11/06 07:25:35;;;;;;;0.00;0.00;;;;;;;12.51;100.00;99123.28;4922371;29;20052;-75
2022/11/06 07:28:05;;;;;;;0.00;0.00;;;;;;;12.46;100.00;99117.94;4938952;29;20027;-74
2022/11/06 07:30:35;;;;;;;0.00;0.00;;;;;;;12.45;100.00;99125.31;4947227;29;20027;-74
2022/11/06 07:33:03;;;;;;;0.20;0.20;;;;;;;12.40;100.00;99123.50;4930992;29;20047;-74
2022/11/06 07:35:30;;;;;;;0.00;0.00;;;;;;;12.34;100.00;99111.06;4943808;29;20048;-75
2022/11/06 07:37:56;;;;;;;0.00;0.00;;;;;;;12.37;100.00;99113.19;4933054;29;20035;-75
2022/11/06 07:40:24;;;;;;;0.00;0.00;;;;;;;12.39;100.00;99121.09;4927927;29;20039;-74
2022/11/06 07:42:50;;;;;;;0.00;0.00;;;;;;;12.42;100.00;99114.19;4946208;29;20027;-75
2022/11/06 07:45:15;;;;;;;0.00;0.00;;;;;;;12.45;100.00;99113.56;4948019;29;20126;-71
2022/11/06 07:47:41;;;;;;;0.00;0.00;;;;;;;12.52;100.00;99111.19;4928897;29;20106;-75
2022/11/06 07:50:12;;;;;;;0.00;0.00;;;;;;;12.60;100.00;99126.91;4925057;29;20051;-75
2022/11/06 07:52:38;;;;;;;0.00;0.00;;;;;;;12.66;100.00;99125.66;4932747;29;20059;-75
2022/11/06 07:55:11;;;;;;;0.00;0.00;;;;;;;12.69;100.00;99130.53;4936862;29;20028;-75
2022/11/06 07:58:19;;;;;;;;;;;;;;;;;;;;;
2022/11/06 08:04:53;;;;;;;0.00;0.00;;;;;;;12.78;100.00;99138.00;4945963;29;20023;-77
2022/11/06 08:07:57;;;;;;;0.00;0.00;;;;;;;12.84;100.00;99125.78;4920893;29;20103;-74
2022/11/06 08:10:56;;;;;;;;;;;;;;;;;;;;;
2022/11/06 08:17:00;;;;;;;0.00;0.00;;;;;;;13.05;100.00;99107.69;4936648;28;20031;-75
2022/11/06 08:23:17;;;;;;;;;;;;;;;;;;;;;
2022/11/06 08:25:55;;;;;;;0.00;0.00;;;;;;;12.91;100.00;99105.00;4947275;29;20079;-77
2022/11/06 08:28:51;;;;;;;;;;;;;;;;;;;;;
2022/11/06 08:32:03;;;;;;;;;;;;;;;;;;;;;
2022/11/06 08:35:07;;;;;;;0.00;0.00;;;;;;;12.92;100.00;99103.06;4953284;29;20083;-76
2022/11/06 08:37:56;;;;;;;0.00;0.00;;;;;;;12.93;100.00;99096.47;4908066;29;20039;-77
2022/11/06 08:40:25;;;;;;;0.00;0.00;;;;;;;12.99;100.00;99117.16;4916589;29;20058;-77
2022/11/06 08:47:05;;;;;;;0.00;0.00;;;;;;;13.02;100.00;99110.22;4895945;29;20111;-76
2022/11/06 08:53:07;;;;;;;;;;;;;;;;;;;;;
2022/11/06 08:56:16;;;;;;;0.00;0.00;;;;;;;13.10;100.00;99118.50;4839181;29;20061;-80
2022/11/06 08:59:03;;;;;;;;;;;;;;;;;;;;;
2022/11/06 09:02:36;;;;;;;;;;;;;;;;;;;;;
2022/11/06 09:05:04;;;;;;;0.00;0.00;;;;;;;13.18;100.00;99132.59;4897226;29;20048;-79
2022/11/06 09:11:13;;;;;;;;;;;;;;;;;;;;;
2022/11/06 09:14:39;;;;;;;0.00;0.00;;;;;;;13.20;100.00;99083.66;4933555;29;20102;-79
2022/11/06 09:17:34;;;;;;;0.00;0.00;;;;;;;13.23;100.00;99081.13;4886843;29;20036;-80
2022/11/06 09:20:12;;;;;;;;;;;;;;;;;;;;;
2022/11/06 09:26:29;;;;;;;0.00;0.00;;;;;;;13.33;100.00;99081.94;4822412;29;20046;-78
2022/11/06 09:29:43;;;;;;;;;;;;;;;;;;;;;
2022/11/06 09:32:51;;;;;;;;;;;;;;;;;;;;;
2022/11/06 09:39:06;;;;;;;0.00;0.00;;;;;;;13.26;100.00;99054.97;4920691;29;20034;-77
2022/11/06 09:42:37;;;;;;;0.00;0.00;;;;;;;13.26;100.00;99060.47;4905733;29;20052;-78
2022/11/06 09:56:01;;;;;;;0.00;0.00;;;;;;;13.26;100.00;99044.00;4886093;29;20058;-77
2022/11/06 09:59:42;;;;;;;;;;;;;;;;;;;;;
2022/11/06 10:02:36;;;;;;;;;;;;;;;;;;;;;
2022/11/06 10:06:20;;;;;;;;;;;;;;;;;;;;;
2022/11/06 10:09:21;;;;;;;;;;;;;;;;;;;;;
2022/11/06 10:12:34;;;;;;;0.00;0.00;;;;;;;13.77;100.00;99028.78;4762125;30;20032;-78
2022/11/06 10:15:25;;;;;;;0.00;0.00;;;;;;;13.70;100.00;99017.47;4778150;30;20032;-77
2022/11/06 10:18:21;;;;;;;;;;;;;;;;;;;;;
2022/11/06 10:24:43;;;;;;;;;;;;;;;;;;;;;
2022/11/06 10:27:47;;;;;;;0.00;0.00;;;;;;;13.87;100.00;99013.13;4908253;29;20087;-77
2022/11/06 10:30:48;;;;;;;0.00;0.00;;;;;;;13.81;100.00;99022.66;4930557;29;20285;-77
2022/11/06 10:37:59;;;;;;;0.00;0.00;;;;;;;13.40;100.00;99009.03;4910199;29;20040;-77
2022/11/06 10:40:52;;;;;;;;;;;;;;;;;;;;;
2022/11/06 11:06:47;;;;;;;;;;;;;;;;;;;;;
2022/11/06 11:12:52;;;;;;;;;;;;;;;;;;;;;
2022/11/06 11:20:05;;;;;;;;;;;;;;;;;;;;;
2022/11/06 11:23:15;;;;;;;0.00;0.00;;;;;;;16.31;100.00;98916.72;4959451;28;20147;-79
2022/11/06 11:26:51;;;;;;;;;;;;;;;;;;;;;
2022/11/06 11:51:54;;;;;;;0.00;0.00;;;;;;;13.01;100.00;98865.22;4223180;26;20059;-77
2022/11/06 11:54:33;;;;;;;0.00;0.00;;;;;;;12.96;100.00;98870.84;4960363;28;20074;-77
2022/11/06 11:57:38;;;;;;;;;;;;;;;;;;;;;
2022/11/06 12:04:01;;;;;;;0.00;0.00;;;;;;;12.83;100.00;98893.72;4959602;28;20063;-78
2022/11/06 12:06:26;;;;;;;0.00;0.00;;;;;;;12.64;100.00;98896.72;4960264;28;20039;-77
2022/11/06 12:08:55;;;;;;;0.00;0.00;;;;;;;12.37;100.00;98890.34;4957788;28;20027;-79
2022/11/06 12:11:34;;;;;;;0.00;0.00;;;;;;;12.04;100.00;98896.91;4951834;28;20401;-80
2022/11/06 12:17:34;;;;;;;;;;;;;;;;;;;;;
2022/11/06 12:20:14;;;;;;;0.00;0.00;;;;;;;11.35;100.00;98892.50;4963970;28;20061;-80
2022/11/06 12:23:03;;;;;;;;;;;;;;;;;;;;;
2022/11/06 12:26:21;;;;;;;0.00;0.00;;;;;;;10.82;100.00;98898.59;4955019;28;20710;-78
2022/11/06 12:28:58;;;;;;;0.00;0.00;;;;;;;10.59;100.00;98890.28;4927672;28;20058;-78
2022/11/06 12:31:43;;;;;;;0.00;0.00;;;;;;;10.59;100.00;98879.34;4947348;28;20031;-79
2022/11/06 12:34:42;;;;;;;0.00;0.00;;;;;;;10.65;100.00;98815.25;4953341;28;20050;-76
2022/11/06 12:37:49;;;;;;;0.00;0.00;;;;;;;10.60;100.00;98845.44;4958730;28;20349;-78
2022/11/06 12:41:01;;;;;;;0.00;0.00;;;;;;;10.68;100.00;98843.91;4949144;28;20111;-80
2022/11/06 12:44:04;;;;;;;0.00;0.00;;;;;;;10.73;100.00;98826.59;4958775;28;20042;-77
2022/11/06 12:46:48;;;;;;;0.00;0.00;;;;;;;10.88;100.00;98826.28;4964469;28;20099;-79
2022/11/06 12:49:53;;;;;;;;;;;;;;;;;;;;;
2022/11/06 12:53:55;;;;;;;;;;;;;;;;;;;;;
2022/11/06 13:00:49;;;;;;;;;;;;;;;;;;;;;
2022/11/06 13:03:27;;;;;;;0.00;0.00;;;;;;;13.05;100.00;98840.66;4902922;29;20530;-78
2022/11/06 13:06:25;;;;;;;;;;;;;;;;;;;;;
2022/11/06 13:09:27;;;;;;;0.00;0.00;;;;;;;12.83;100.00;98844.34;4925745;29;20056;-75
2022/11/06 13:12:05;;;;;;;0.00;0.00;;;;;;;12.64;100.00;98836.41;4926372;29;20069;-75
2022/11/06 13:15:03;;;;;;;0.00;0.00;;;;;;;12.95;100.00;98825.31;4923841;29;20016;-78
2022/11/06 13:17:50;;;;;;;0.00;0.00;;;;;;;13.44;100.00;98826.00;4940129;29;20032;-79
2022/11/06 13:20:27;;;;;;;0.00;0.00;;;;;;;13.91;100.00;98835.47;4942420;29;20018;-78
2022/11/06 13:23:07;;;;;;;0.00;0.00;;;;;;;14.03;100.00;98829.31;4923835;29;20023;-78
2022/11/06 13:25:54;;;;;;;0.00;0.00;;;;;;;14.03;100.00;98834.78;4944281;28;20024;-79
2022/11/06 13:28:44;;;;;;;0.00;0.00;;;;;;;14.24;100.00;98840.41;4937505;29;20032;-79
2022/11/06 13:31:14;;;;;;;0.00;0.00;;;;;;;14.61;100.00;98848.97;4920852;29;20747;-80
2022/11/06 13:33:49;;;;;;;0.00;0.00;;;;;;;14.72;100.00;98842.00;4929505;28;20025;-77
2022/11/06 13:36:25;;;;;;;0.00;0.00;;;;;;;14.83;100.00;98845.97;4923323;29;20030;-78
2022/11/06 13:39:03;;;;;;;0.00;0.00;;;;;;;15.00;100.00;98833.25;4924040;29;20028;-78
2022/11/06 13:41:30;;;;;;;0.00;0.00;;;;;;;16.90;100.00;98838.25;4916841;29;20035;-79
2022/11/06 13:44:05;;;;;;;0.00;0.00;;;;;;;21.48;100.00;98848.25;4918627;29;20061;-79
2022/11/06 13:46:46;;;;;;;0.00;0.00;;;;;;;21.56;97.53;98830.53;4921811;29;20083;-78
2022/11/06 13:49:37;;;;;;;0.00;0.00;;;;;;;19.18;99.48;98862.50;4927326;29;20023;-79
2022/11/06 13:52:20;;;;;;;0.00;0.00;;;;;;;20.99;100.00;98853.56;4925409;29;20027;-78
2022/11/06 13:55:19;;;;;;;0.00;0.00;;;;;;;26.04;85.01;98853.19;4937917;29;20031;-78
2022/11/06 13:58:10;;;;;;;0.00;0.00;;;;;;;27.89;79.82;98848.22;4923302;29;20059;-78
2022/11/06 14:00:59;;;;;;;0.00;0.00;;;;;;;27.55;74.62;98851.84;4949729;28;20056;-78
2022/11/06 14:03:50;;;;;;;0.00;0.00;;;;;;;25.12;79.98;98844.72;4936921;29;20104;-75
2022/11/06 14:06:31;;;;;;;0.00;0.00;;;;;;;24.80;82.45;98846.34;4929286;29;20039;-75
2022/11/06 14:09:45;;;;;;;0.00;0.00;;;;;;;25.55;77.75;98856.59;4930859;29;20039;-78
2022/11/06 14:12:39;;;;;;;0.00;0.00;;;;;;;25.03;81.32;98859.91;4871606;29;20416;-75
2022/11/06 14:15:47;;;;;;;0.00;0.00;;;;;;;25.35;73.53;98850.66;4937144;29;20028;-75
2022/11/06 14:18:29;;;;;;;0.20;0.17;;;;;;;24.98;82.46;98851.91;4919839;29;20111;-78
2022/11/06 14:22:03;;;;;;;;;;;;;;;;;;;;;
2022/11/06 14:24:59;;;;;;;;;;;;;;;;;;;;;
2022/11/06 14:27:35;;;;;;;;;;;;;;;;;;;;;
2022/11/06 14:30:46;;;;;;;0.00;0.00;;;;;;;25.83;76.18;98854.88;4937110;29;20035;-78
2022/11/06 14:33:54;;;;;;;;;;;;;;;;;;;;;
2022/11/06 14:36:47;;;;;;;0.00;0.00;;;;;;;18.11;86.91;98847.66;4919009;29;20055;-79
2022/11/06 14:40:22;;;;;;;;;;;;;;;;;;;;;
2022/11/06 14:46:42;;;;;;;0.00;0.00;;;;;;;14.55;100.00;98845.59;4805747;29;20149;-80
2022/11/06 14:53:31;;;;;;;0.00;0.00;;;;;;;13.10;100.00;98852.31;4838104;29;20062;-78
2022/11/06 14:56:38;;;;;;;0.00;0.00;;;;;;;12.34;100.00;98847.91;4856609;29;20032;-79
2022/11/06 14:59:58;;;;;;;0.00;0.00;;;;;;;12.31;100.00;98848.53;4902217;29;20036;-80
2022/11/06 15:02:46;;;;;;;0.00;0.00;;;;;;;13.65;100.00;98833.56;4896000;29;20077;-80
2022/11/06 15:05:18;;;;;;;0.00;0.00;;;;;;;14.14;100.00;98853.34;4950618;28;20114;-79
2022/11/06 15:07:56;;;;;;;;;;;;;;;;;;;;;
2022/11/06 15:10:40;;;;;;;0.00;0.00;;;;;;;16.89;100.00;98859.53;4961757;28;20069;-79
2022/11/06 15:13:11;;;;;;;0.00;0.00;;;;;;;17.92;100.00;98859.38;4964307;28;20840;-78
2022/11/06 15:15:48;;;;;;;0.00;0.00;;;;;;;18.49;86.97;98862.84;4959064;28;20042;-79
2022/11/06 15:18:21;;;;;;;0.00;0.00;;;;;;;18.96;91.23;98852.91;4936574;29;20063;-79
2022/11/06 15:25:05;;;;;;;;;;;;;;;;;;;;;
2022/11/06 15:27:36;;;;;;;0.00;0.00;;;;;;;20.39;88.84;98846.66;4959982;28;20024;-80
2022/11/06 15:30:12;;;;;;;1.40;1.30;;;;;;;19.63;77.28;98855.53;4947824;29;20047;-77
2022/11/06 15:32:44;;;;;;;0.00;0.00;;;;;;;17.66;82.59;98852.31;4961737;28;20030;-78
2022/11/06 15:35:27;;;;;;;0.00;0.00;;;;;;;15.87;87.05;98848.22;4948827;28;20025;-78
2022/11/06 15:38:51;;;;;;;0.00;0.00;;;;;;;14.49;93.39;98836.72;4944441;28;20035;-77
2022/11/06 15:41:36;;;;;;;0.00;0.00;;;;;;;13.78;97.65;98845.53;4953714;28;20059;-79